createdAt,value
2018-09-08T00:01:53.494Z,100254.00
2018-09-08T00:04:21.034Z,100251.00
2018-09-08T00:06:54.294Z,100246.00
2018-09-08T00:09:21.826Z,100261.00
2018-09-08T00:11:49.369Z,100259.00
2018-09-08T00:14:16.894Z,100261.00
2018-09-08T00:16:50.138Z,100257.00
2018-09-08T00:19:43.254Z,100254.00
2018-09-08T00:22:16.635Z,100260.00
2018-09-08T00:24:50.017Z,100258.00
2018-09-08T00:27:23.296Z,100266.00
2018-09-08T00:29:50.894Z,100269.00
2018-09-08T00:32:19.756Z,100271.00
2018-09-08T00:34:47.283Z,100281.00
2018-09-08T00:37:14.795Z,100279.00
2018-09-08T00:39:43.036Z,100279.00
2018-09-08T00:42:11.006Z,100275.00
2018-09-08T00:44:38.531Z,100280.00
2018-09-08T00:47:06.060Z,100287.00
2018-09-08T00:49:33.591Z,100283.00
2018-09-08T00:52:01.125Z,100283.00
2018-09-08T00:54:28.680Z,100288.00
2018-09-08T00:56:56.221Z,100288.00
2018-09-08T00:59:23.742Z,100295.00
2018-09-08T01:01:51.281Z,100300.00
2018-09-08T01:04:18.821Z,100296.00
2018-09-08T01:06:46.339Z,100308.00
2018-09-08T01:09:13.900Z,100305.00
2018-09-08T01:11:41.434Z,100297.00
2018-09-08T01:14:08.984Z,100298.00
2018-09-08T01:16:36.520Z,100303.00
2018-09-08T01:19:05.748Z,100305.00
2018-09-08T01:21:33.325Z,100302.00
2018-09-08T01:24:00.873Z,100305.00
2018-09-08T01:26:28.432Z,100313.00
2018-09-08T01:28:55.983Z,100319.00
2018-09-08T01:31:23.518Z,100316.00
2018-09-08T01:33:51.058Z,100311.00
2018-09-08T01:36:18.747Z,100311.00
2018-09-08T01:38:46.518Z,100324.00
2018-09-08T01:41:14.064Z,100335.00
2018-09-08T01:43:41.595Z,100333.00
2018-09-08T01:46:09.126Z,100338.00
2018-09-08T01:48:37.183Z,100330.00
2018-09-08T01:51:04.840Z,100331.00
2018-09-08T01:53:32.388Z,100333.00
2018-09-08T01:56:00.057Z,100336.00
2018-09-08T01:58:27.618Z,100335.00
2018-09-08T02:00:55.171Z,100348.00
2018-09-08T02:03:22.731Z,100355.00
2018-09-08T02:05:50.294Z,100349.00
2018-09-08T02:08:17.815Z,100344.00
2018-09-08T02:10:45.356Z,100342.00
2018-09-08T02:13:13.304Z,100347.00
2018-09-08T02:15:40.841Z,100356.00
2018-09-08T02:18:08.365Z,100340.00
2018-09-08T02:20:35.901Z,100355.00
2018-09-08T02:23:03.427Z,100361.00
2018-09-08T02:25:30.973Z,100362.00
2018-09-08T02:27:58.614Z,100363.00
2018-09-08T02:30:26.146Z,100355.00
2018-09-08T02:32:53.668Z,100361.00
2018-09-08T02:35:21.208Z,100364.00
2018-09-08T02:37:48.724Z,100358.00
2018-09-08T02:40:16.255Z,100367.00
2018-09-08T02:42:43.794Z,100358.00
2018-09-08T02:45:11.355Z,100365.00
2018-09-08T02:47:38.885Z,100363.00
2018-09-08T02:50:32.700Z,100364.00
2018-09-08T02:52:59.543Z,100358.00
2018-09-08T02:55:25.978Z,100369.00
2018-09-08T02:57:52.275Z,100366.00
2018-09-08T03:00:18.751Z,100369.00
2018-09-08T03:02:45.041Z,100375.00
2018-09-08T03:05:11.337Z,100372.00
2018-09-08T03:07:37.629Z,100374.00
2018-09-08T03:10:03.936Z,100371.00
2018-09-08T03:12:30.233Z,100373.00
2018-09-08T03:14:56.530Z,100372.00
2018-09-08T03:17:22.823Z,100378.00
2018-09-08T03:19:49.114Z,100372.00
2018-09-08T03:22:15.394Z,100376.00
2018-09-08T03:24:41.695Z,100386.00
2018-09-08T03:27:07.992Z,100382.00
2018-09-08T03:29:34.287Z,100385.00
2018-09-08T03:32:00.565Z,100397.00
2018-09-08T03:34:26.858Z,100396.00
2018-09-08T03:36:53.145Z,100391.00
2018-09-08T03:39:19.446Z,100399.00
2018-09-08T03:41:45.745Z,100397.00
2018-09-08T03:44:12.041Z,100395.00
2018-09-08T03:46:38.355Z,100393.00
2018-09-08T03:49:04.647Z,100401.00
2018-09-08T03:51:30.951Z,100401.00
2018-09-08T03:53:57.258Z,100401.00
2018-09-08T03:56:23.554Z,100417.00
2018-09-08T03:58:49.888Z,100419.00
2018-09-08T04:01:16.151Z,100410.00
2018-09-08T04:03:43.678Z,100427.00
2018-09-08T04:06:11.222Z,100433.00
2018-09-08T04:08:38.749Z,100428.00
2018-09-08T04:11:06.297Z,100438.00
2018-09-08T04:13:33.794Z,100436.00
2018-09-08T04:16:01.327Z,100437.00
2018-09-08T04:18:28.859Z,100444.00
2018-09-08T04:20:56.384Z,100439.00
2018-09-08T04:23:23.912Z,100445.00
2018-09-08T04:25:51.453Z,100460.00
2018-09-08T04:28:18.966Z,100460.00
2018-09-08T04:30:46.500Z,100454.00
2018-09-08T04:33:14.008Z,100459.00
2018-09-08T04:35:41.519Z,100457.00
2018-09-08T04:38:09.034Z,100471.00
2018-09-08T04:40:36.574Z,100479.00
2018-09-08T04:43:04.144Z,100482.00
2018-09-08T04:45:31.670Z,100476.00
2018-09-08T04:47:59.207Z,100478.00
2018-09-08T04:50:26.760Z,100485.00
2018-09-08T04:52:54.296Z,100485.00
2018-09-08T04:55:21.819Z,100490.00
2018-09-08T04:57:49.336Z,100489.00
2018-09-08T05:00:16.876Z,100497.00
2018-09-08T05:02:44.397Z,100488.00
2018-09-08T05:05:11.935Z,100500.00
2018-09-08T05:07:39.478Z,100505.00
2018-09-08T05:10:07.028Z,100502.00
2018-09-08T05:12:34.538Z,100502.00
2018-09-08T05:15:02.073Z,100506.00
2018-09-08T05:17:29.585Z,100507.00
2018-09-08T05:19:57.110Z,100520.00
2018-09-08T05:22:24.669Z,100514.00
2018-09-08T05:24:52.185Z,100510.00
2018-09-08T05:27:19.691Z,100514.00
2018-09-08T05:29:47.239Z,100512.00
2018-09-08T05:32:14.757Z,100517.00
2018-09-08T05:34:42.276Z,100514.00
2018-09-08T05:37:09.788Z,100513.00
2018-09-08T05:39:37.294Z,100523.00
2018-09-08T05:42:04.863Z,100531.00
2018-09-08T05:44:32.387Z,100539.00
2018-09-08T05:46:59.925Z,100533.00
2018-09-08T05:49:27.443Z,100537.00
2018-09-08T05:51:54.947Z,100544.00
2018-09-08T05:54:22.462Z,100534.00
2018-09-08T05:56:50.065Z,100527.00
2018-09-08T05:59:17.665Z,100534.00
2018-09-08T06:01:45.175Z,100551.00
2018-09-08T06:04:12.678Z,100554.00
2018-09-08T06:06:40.186Z,100560.00
2018-09-08T06:09:08.815Z,100563.00
2018-09-08T06:11:36.345Z,100552.00
2018-09-08T06:14:03.875Z,100559.00
2018-09-08T06:16:31.411Z,100559.00
2018-09-08T06:18:59.001Z,100560.00
2018-09-08T06:21:26.593Z,100560.00
2018-09-08T06:23:54.463Z,100563.00
2018-09-08T06:26:22.013Z,100565.00
2018-09-08T06:28:49.592Z,100567.00
2018-09-08T06:31:17.147Z,100568.00
2018-09-08T06:33:44.724Z,100572.00
2018-09-08T06:36:12.255Z,100574.00
2018-09-08T06:38:39.785Z,100587.00
2018-09-08T06:41:07.325Z,100582.00
2018-09-08T06:43:34.885Z,100590.00
2018-09-08T06:46:02.447Z,100589.00
2018-09-08T06:48:29.977Z,100591.00
2018-09-08T06:50:57.511Z,100589.00
2018-09-08T06:53:25.037Z,100595.00
2018-09-08T06:55:52.762Z,100592.00
2018-09-08T06:58:20.279Z,100587.00
2018-09-08T07:00:47.827Z,100595.00
2018-09-08T07:03:15.397Z,100598.00
2018-09-08T07:05:42.915Z,100605.00
2018-09-08T07:08:10.484Z,100599.00
2018-09-08T07:10:38.039Z,100603.00
2018-09-08T07:13:05.584Z,100609.00
2018-09-08T07:15:33.138Z,100601.00
2018-09-08T07:18:00.684Z,100610.00
2018-09-08T07:20:28.217Z,100606.00
2018-09-08T07:22:55.800Z,100609.00
2018-09-08T07:25:23.349Z,100599.00
2018-09-08T07:27:50.887Z,100616.00
2018-09-08T07:30:18.427Z,100615.00
2018-09-08T07:32:45.962Z,100616.00
2018-09-08T07:35:13.524Z,100618.00
2018-09-08T07:37:41.063Z,100625.00
2018-09-08T07:40:08.611Z,100633.00
2018-09-08T07:42:36.158Z,100626.00
2018-09-08T07:45:03.715Z,100617.00
2018-09-08T07:47:31.275Z,100625.00
2018-09-08T07:49:58.861Z,100627.00
2018-09-08T07:52:26.395Z,100624.00
2018-09-08T07:54:53.936Z,100627.00
2018-09-08T07:57:21.474Z,100626.00
2018-09-08T07:59:52.549Z,100628.00
2018-09-08T08:02:20.095Z,100634.00
2018-09-08T08:04:47.653Z,100635.00
2018-09-08T08:07:15.267Z,100645.00
2018-09-08T08:09:43.965Z,100647.00
2018-09-08T08:12:11.827Z,100647.00
2018-09-08T08:14:39.554Z,100653.00
2018-09-08T08:17:07.031Z,100649.00
2018-09-08T08:19:35.225Z,100652.00
2018-09-08T08:22:02.768Z,100656.00
2018-09-08T08:24:30.300Z,100655.00
2018-09-08T08:26:58.415Z,100654.00
2018-09-08T08:29:25.911Z,100658.00
2018-09-08T08:31:53.639Z,100663.00
2018-09-08T08:34:21.164Z,100663.00
2018-09-08T08:36:48.697Z,100657.00
2018-09-08T08:41:50.647Z,100655.00
2018-09-08T08:44:18.154Z,100652.00
2018-09-08T08:46:45.674Z,100653.00
2018-09-08T08:49:13.204Z,100670.00
2018-09-08T08:51:58.268Z,100666.00
2018-09-08T08:54:46.009Z,100664.00
2018-09-08T08:57:13.882Z,100661.00
2018-09-08T08:59:41.638Z,100656.00
2018-09-08T09:02:09.170Z,100657.00
2018-09-08T09:04:36.844Z,100657.00
2018-09-08T09:07:05.012Z,100655.00
2018-09-08T09:09:32.230Z,100664.00
2018-09-08T09:11:59.768Z,100648.00
2018-09-08T09:14:27.302Z,100653.00
2018-09-08T09:16:54.805Z,100658.00
2018-09-08T09:19:40.972Z,100658.00
2018-09-08T09:22:27.494Z,100661.00
2018-09-08T09:25:00.579Z,100653.00
2018-09-08T09:27:28.638Z,100652.00
2018-09-08T09:29:56.493Z,100665.00
2018-09-08T09:32:24.025Z,100653.00
2018-09-08T09:34:51.554Z,100652.00
2018-09-08T09:37:19.135Z,100664.00
2018-09-08T09:39:47.043Z,100663.00
2018-09-08T09:42:14.571Z,100665.00
2018-09-08T09:44:42.095Z,100676.00
2018-09-08T09:47:09.654Z,100667.00
2018-09-08T09:49:37.184Z,100671.00
2018-09-08T09:52:04.761Z,100670.00
2018-09-08T09:54:32.279Z,100661.00
2018-09-08T09:56:59.824Z,100660.00
2018-09-08T09:59:27.346Z,100656.00
2018-09-08T10:02:00.635Z,100656.00
2018-09-08T10:04:28.168Z,100667.00
2018-09-08T10:06:55.744Z,100666.00
2018-09-08T10:09:23.267Z,100657.00
2018-09-08T10:11:50.797Z,100662.00
2018-09-08T10:14:18.730Z,100655.00
2018-09-08T10:16:46.293Z,100664.00
2018-09-08T10:19:13.848Z,100662.00
2018-09-08T10:21:42.079Z,100661.00
2018-09-08T10:24:09.613Z,100661.00
2018-09-08T10:26:37.138Z,100662.00
2018-09-08T10:29:04.685Z,100658.00
2018-09-08T10:31:32.258Z,100660.00
2018-09-08T10:33:59.768Z,100662.00
2018-09-08T10:36:27.300Z,100653.00
2018-09-08T10:38:54.885Z,100659.00
2018-09-08T10:41:23.007Z,100666.00
2018-09-08T10:43:50.555Z,100674.00
2018-09-08T10:46:18.075Z,100657.00
2018-09-08T10:48:45.632Z,100655.00
2018-09-08T10:51:32.735Z,100669.00
2018-09-08T10:54:00.267Z,100667.00
2018-09-08T10:56:27.779Z,100657.00
2018-09-08T10:58:55.311Z,100656.00
2018-09-08T11:01:22.885Z,100655.00
2018-09-08T11:03:50.405Z,100655.00
2018-09-08T11:06:17.941Z,100653.00
2018-09-08T11:08:45.482Z,100656.00
2018-09-08T11:11:13.020Z,100661.00
2018-09-08T11:13:40.573Z,100652.00
2018-09-08T11:16:08.133Z,100654.00
2018-09-08T11:18:35.681Z,100652.00
2018-09-08T11:21:03.234Z,100656.00
2018-09-08T11:23:30.792Z,100655.00
2018-09-08T11:25:58.339Z,100655.00
2018-09-08T11:28:25.877Z,100653.00
2018-09-08T11:30:53.429Z,100652.00
2018-09-08T11:33:20.987Z,100655.00
2018-09-08T11:35:48.518Z,100656.00
2018-09-08T11:38:16.312Z,100658.00
2018-09-08T11:40:43.644Z,100653.00
2018-09-08T11:43:11.179Z,100657.00
2018-09-08T11:45:38.711Z,100656.00
2018-09-08T11:48:06.251Z,100658.00
2018-09-08T11:50:33.805Z,100656.00
2018-09-08T11:53:01.362Z,100665.00
2018-09-08T11:55:28.975Z,100659.00
2018-09-08T11:57:56.479Z,100658.00
2018-09-08T12:00:24.051Z,100660.00
2018-09-08T12:02:51.632Z,100651.00
2018-09-08T12:05:19.206Z,100650.00
2018-09-08T12:07:46.780Z,100651.00
2018-09-08T12:10:14.354Z,100645.00
2018-09-08T12:12:41.880Z,100643.00
2018-09-08T12:15:09.408Z,100650.00
2018-09-08T12:17:36.924Z,100645.00
2018-09-08T12:20:04.515Z,100646.00
2018-09-08T12:22:32.039Z,100648.00
2018-09-08T12:24:59.570Z,100647.00
2018-09-08T12:27:27.091Z,100643.00
2018-09-08T12:29:54.630Z,100646.00
2018-09-08T12:32:22.170Z,100637.00
2018-09-08T12:34:49.694Z,100646.00
2018-09-08T12:37:17.303Z,100631.00
2018-09-08T12:39:44.786Z,100624.00
2018-09-08T12:42:12.312Z,100629.00
2018-09-08T12:44:39.835Z,100628.00
2018-09-08T12:47:07.351Z,100623.00
2018-09-08T12:49:34.886Z,100622.00
2018-09-08T12:52:02.403Z,100622.00
2018-09-08T12:54:30.009Z,100618.00
2018-09-08T12:56:57.540Z,100624.00
2018-09-08T12:59:25.098Z,100615.00
2018-09-08T13:01:52.604Z,100622.00
2018-09-08T13:04:20.141Z,100616.00
2018-09-08T13:06:47.661Z,100617.00
2018-09-08T13:09:15.197Z,100617.00
2018-09-08T13:11:42.722Z,100611.00
2018-09-08T13:14:10.291Z,100620.00
2018-09-08T13:16:37.814Z,100619.00
2018-09-08T13:19:05.342Z,100615.00
2018-09-08T13:21:32.862Z,100607.00
2018-09-08T13:24:00.460Z,100611.00
2018-09-08T13:26:27.953Z,100604.00
2018-09-08T13:28:55.499Z,100609.00
2018-09-08T13:31:23.026Z,100596.00
2018-09-08T13:33:50.632Z,100612.00
2018-09-08T13:36:18.117Z,100609.00
2018-09-08T13:38:45.651Z,100613.00
2018-09-08T13:41:13.185Z,100601.00
2018-09-08T13:43:40.728Z,100607.00
2018-09-08T13:46:08.263Z,100598.00
2018-09-08T13:48:35.811Z,100602.00
2018-09-08T13:51:03.346Z,100595.00
2018-09-08T13:53:30.856Z,100586.00
2018-09-08T13:55:58.420Z,100582.00
2018-09-08T13:58:25.951Z,100580.00
2018-09-08T14:00:53.470Z,100581.00
2018-09-08T14:03:20.995Z,100581.00
2018-09-08T14:05:48.545Z,100573.00
2018-09-08T14:08:16.700Z,100570.00
2018-09-08T14:10:45.282Z,100573.00
2018-09-08T14:13:12.820Z,100576.00
2018-09-08T14:15:40.360Z,100573.00
2018-09-08T14:18:07.893Z,100572.00
2018-09-08T14:20:35.446Z,100563.00
2018-09-08T14:23:02.985Z,100557.00
2018-09-08T14:25:30.529Z,100555.00
2018-09-08T14:27:58.049Z,100556.00
2018-09-08T14:30:25.583Z,100559.00
2018-09-08T14:32:53.135Z,100557.00
2018-09-08T14:35:20.906Z,100562.00
2018-09-08T14:37:49.468Z,100558.00
2018-09-08T14:40:17.021Z,100559.00
2018-09-08T14:42:44.539Z,100560.00
2018-09-08T14:45:12.069Z,100560.00
2018-09-08T14:47:39.695Z,100549.00
2018-09-08T14:50:07.143Z,100549.00
2018-09-08T14:52:34.664Z,100557.00
2018-09-08T14:55:02.201Z,100547.00
2018-09-08T14:57:29.725Z,100550.00
2018-09-08T14:59:57.261Z,100556.00
2018-09-08T15:02:24.809Z,100548.00
2018-09-08T15:04:52.447Z,100544.00
2018-09-08T15:07:19.996Z,100538.00
2018-09-08T15:09:47.545Z,100536.00
2018-09-08T15:12:15.092Z,100534.00
2018-09-08T15:14:42.636Z,100533.00
2018-09-08T15:17:10.185Z,100531.00
2018-09-08T15:19:37.787Z,100538.00
2018-09-08T15:22:05.492Z,100526.00
2018-09-08T15:24:33.103Z,100520.00
2018-09-08T15:27:00.597Z,100526.00
2018-09-08T15:29:28.185Z,100524.00
2018-09-08T15:31:55.733Z,100536.00
2018-09-08T15:34:23.277Z,100529.00
2018-09-08T15:36:50.847Z,100534.00
2018-09-08T15:39:18.401Z,100534.00
2018-09-08T15:41:45.945Z,100530.00
2018-09-08T15:44:13.471Z,100533.00
2018-09-08T15:46:41.019Z,100530.00
2018-09-08T15:49:08.554Z,100539.00
2018-09-08T15:51:36.159Z,100543.00
2018-09-08T15:54:03.644Z,100542.00
2018-09-08T15:56:31.151Z,100544.00
2018-09-08T15:58:58.679Z,100544.00
2018-09-08T16:01:26.202Z,100550.00
2018-09-08T16:03:53.719Z,100546.00
2018-09-08T16:06:21.261Z,100536.00
2018-09-08T16:08:48.788Z,100536.00
2018-09-08T16:11:16.354Z,100540.00
2018-09-08T16:13:43.843Z,100527.00
2018-09-08T16:16:11.369Z,100522.00
2018-09-08T16:18:38.891Z,100521.00
2018-09-08T16:21:06.455Z,100524.00
2018-09-08T16:23:33.962Z,100522.00
2018-09-08T16:26:01.620Z,100528.00
2018-09-08T16:28:29.196Z,100535.00
2018-09-08T16:30:56.680Z,100528.00
2018-09-08T16:33:24.179Z,100532.00
2018-09-08T16:35:51.690Z,100530.00
2018-09-08T16:38:19.191Z,100528.00
2018-09-08T16:40:46.690Z,100528.00
2018-09-08T16:43:14.195Z,100524.00
2018-09-08T16:45:41.763Z,100513.00
2018-09-08T16:48:09.304Z,100519.00
2018-09-08T16:50:36.845Z,100518.00
2018-09-08T16:53:05.100Z,100518.00
2018-09-08T16:55:32.637Z,100511.00
2018-09-08T16:58:00.220Z,100525.00
2018-09-08T17:00:29.788Z,100524.00
2018-09-08T17:02:57.262Z,100535.00
2018-09-08T17:05:24.844Z,100529.00
2018-09-08T17:07:52.325Z,100527.00
2018-09-08T17:10:19.867Z,100522.00
2018-09-08T17:12:47.400Z,100531.00
2018-09-08T17:15:14.943Z,100535.00
2018-09-08T17:17:42.501Z,100532.00
2018-09-08T17:20:10.069Z,100524.00
2018-09-08T17:22:37.599Z,100526.00
2018-09-08T17:25:05.161Z,100523.00
2018-09-08T17:27:32.743Z,100529.00
2018-09-08T17:30:00.278Z,100524.00
2018-09-08T17:32:27.847Z,100525.00
2018-09-08T17:34:55.383Z,100525.00
2018-09-08T17:37:22.929Z,100528.00
2018-09-08T17:39:50.485Z,100536.00
2018-09-08T17:42:18.052Z,100532.00
2018-09-08T17:44:58.875Z,100537.00
2018-09-08T17:47:26.436Z,100535.00
2018-09-08T17:49:53.962Z,100535.00
2018-09-08T17:52:21.503Z,100538.00
2018-09-08T17:54:49.033Z,100544.00
2018-09-08T17:57:16.618Z,100543.00
2018-09-08T17:59:50.297Z,100540.00
2018-09-08T18:02:17.939Z,100552.00
2018-09-08T18:04:49.939Z,100547.00
2018-09-08T18:07:17.883Z,100542.00
2018-09-08T18:09:45.951Z,100544.00
2018-09-08T18:12:13.512Z,100541.00
2018-09-08T18:14:41.267Z,100553.00
2018-09-08T18:17:08.811Z,100550.00
2018-09-08T18:19:36.602Z,100552.00
2018-09-08T18:22:04.153Z,100542.00
2018-09-08T18:24:31.680Z,100555.00
2018-09-08T18:26:59.206Z,100552.00
2018-09-08T18:29:26.746Z,100572.00
2018-09-08T18:31:54.269Z,100573.00
2018-09-08T18:34:21.806Z,100570.00
2018-09-08T18:36:49.357Z,100569.00
2018-09-08T18:39:16.882Z,100575.00
2018-09-08T18:41:44.553Z,100580.00
2018-09-08T18:44:12.066Z,100569.00
2018-09-08T18:46:39.592Z,100568.00
2018-09-08T18:49:07.116Z,100566.00
2018-09-08T18:51:34.645Z,100577.00
2018-09-08T18:54:02.176Z,100573.00
2018-09-08T18:56:29.692Z,100571.00
2018-09-08T18:58:57.211Z,100574.00
2018-09-08T19:01:24.752Z,100574.00
2018-09-08T19:03:52.280Z,100578.00
2018-09-08T19:06:19.809Z,100586.00
2018-09-08T19:08:47.364Z,100594.00
2018-09-08T19:11:15.009Z,100594.00
2018-09-08T19:13:43.231Z,100597.00
2018-09-08T19:16:10.778Z,100604.00
2018-09-08T19:18:38.360Z,100599.00
2018-09-08T19:21:05.924Z,100596.00
2018-09-08T19:23:33.485Z,100597.00
2018-09-08T19:26:01.029Z,100607.00
2018-09-08T19:28:28.582Z,100598.00
2018-09-08T19:30:56.115Z,100601.00
2018-09-08T19:33:23.643Z,100609.00
2018-09-08T19:35:51.170Z,100605.00
2018-09-08T19:38:18.705Z,100606.00
2018-09-08T19:40:47.203Z,100597.00
2018-09-08T19:43:14.747Z,100597.00
2018-09-08T19:45:42.280Z,100603.00
2018-09-08T19:48:14.421Z,100601.00
2018-09-08T19:50:41.969Z,100606.00
2018-09-08T19:53:15.420Z,100602.00
2018-09-08T19:55:42.960Z,100597.00
2018-09-08T19:58:16.293Z,100597.00
2018-09-08T20:00:43.962Z,100605.00
2018-09-08T20:03:11.508Z,100610.00
2018-09-08T20:05:39.052Z,100604.00
2018-09-08T20:08:06.579Z,100599.00
2018-09-08T20:10:34.108Z,100593.00
2018-09-08T20:13:01.635Z,100600.00
2018-09-08T20:15:29.258Z,100602.00
2018-09-08T20:17:56.848Z,100607.00
2018-09-08T20:20:24.367Z,100611.00
2018-09-08T20:23:04.297Z,100610.00
2018-09-08T20:25:31.811Z,100615.00
2018-09-08T20:27:59.315Z,100619.00
2018-09-08T20:30:26.857Z,100626.00
2018-09-08T20:33:08.769Z,100634.00
2018-09-08T20:35:36.291Z,100616.00
2018-09-08T20:38:25.819Z,100629.00
2018-09-08T20:40:53.332Z,100628.00
2018-09-08T20:43:20.858Z,100624.00
2018-09-08T20:45:48.402Z,100622.00
2018-09-08T20:48:25.983Z,100633.00
2018-09-08T20:50:53.533Z,100628.00
2018-09-08T20:53:21.065Z,100628.00
2018-09-08T20:55:48.625Z,100633.00
2018-09-08T20:58:16.139Z,100644.00
2018-09-08T21:00:43.717Z,100635.00
2018-09-08T21:03:11.255Z,100641.00
2018-09-08T21:05:38.756Z,100628.00
2018-09-08T21:08:06.336Z,100632.00
2018-09-08T21:10:33.859Z,100620.00
2018-09-08T21:13:01.453Z,100619.00
2018-09-08T21:15:28.962Z,100621.00
2018-09-08T21:17:56.490Z,100623.00
2018-09-08T21:20:24.025Z,100612.00
2018-09-08T21:22:51.592Z,100614.00
2018-09-08T21:25:19.142Z,100613.00
2018-09-08T21:27:46.751Z,100612.00
2018-09-08T21:30:22.738Z,100616.00
2018-09-08T21:32:50.284Z,100615.00
2018-09-08T21:35:17.835Z,100609.00
2018-09-08T21:37:45.369Z,100627.00
2018-09-08T21:40:12.910Z,100618.00
2018-09-08T21:42:40.466Z,100613.00
2018-09-08T21:45:08.003Z,100615.00
2018-09-08T21:47:35.564Z,100604.00
2018-09-08T21:50:03.120Z,100601.00
2018-09-08T21:52:30.666Z,100600.00
2018-09-08T21:54:58.212Z,100600.00
2018-09-08T21:57:31.653Z,100608.00
2018-09-08T21:59:59.192Z,100608.00
2018-09-08T22:02:26.735Z,100599.00
2018-09-08T22:05:26.088Z,100599.00
2018-09-08T22:07:53.638Z,100597.00
2018-09-08T22:10:21.187Z,100600.00
2018-09-08T22:12:48.730Z,100597.00
2018-09-08T22:15:16.262Z,100596.00
2018-09-08T22:17:43.817Z,100591.00
2018-09-08T22:20:11.364Z,100591.00
2018-09-08T22:22:38.899Z,100581.00
2018-09-08T22:25:06.493Z,100576.00
2018-09-08T22:27:34.015Z,100571.00
2018-09-08T22:30:01.558Z,100582.00
2018-09-08T22:32:29.094Z,100580.00
2018-09-08T22:34:56.634Z,100586.00
2018-09-08T22:37:24.204Z,100574.00
2018-09-08T22:39:51.740Z,100575.00
2018-09-08T22:42:19.273Z,100577.00
2018-09-08T22:44:46.818Z,100580.00
2018-09-08T22:47:14.362Z,100590.00
2018-09-08T22:49:41.891Z,100588.00
2018-09-08T22:52:09.453Z,100581.00
2018-09-08T22:54:36.982Z,100599.00
2018-09-08T22:57:04.539Z,100603.00
2018-09-08T22:59:32.107Z,100600.00
2018-09-08T23:01:59.676Z,100603.00
2018-09-08T23:04:27.242Z,100608.00
2018-09-08T23:06:54.774Z,100618.00
2018-09-08T23:09:22.331Z,100622.00
2018-09-08T23:11:49.878Z,100617.00
2018-09-08T23:14:17.428Z,100626.00
2018-09-08T23:16:44.947Z,100619.00
2018-09-08T23:19:12.498Z,100625.00
2018-09-08T23:21:40.042Z,100614.00
2018-09-08T23:24:07.579Z,100608.00
2018-09-08T23:26:35.114Z,100608.00
2018-09-08T23:29:02.665Z,100608.00
2018-09-08T23:31:30.194Z,100604.00
2018-09-08T23:33:57.723Z,100606.00
2018-09-08T23:36:25.244Z,100603.00
2018-09-08T23:38:52.796Z,100604.00
2018-09-08T23:41:20.329Z,100596.00
2018-09-08T23:43:47.866Z,100582.00
2018-09-08T23:46:15.391Z,100594.00
2018-09-08T23:48:42.944Z,100596.00
2018-09-08T23:51:10.491Z,100592.00
2018-09-08T23:53:38.045Z,100592.00
2018-09-08T23:56:05.604Z,100610.00
2018-09-08T23:58:33.157Z,100600.00
